Time;durP1;ratioP1;P1;durP2;ratioP2;P2;SDS_P1;SDS_P2;PMS_P1;PMS_P2;Temp;Humidity;BMP_temperature;BMP_pressure;BME280_temperature;BME280_humidity;BME280_pressure;Samples;Min_cycle;Max_cycle;Signal;HPM_P1;HPM_P2
2021/04/21 00:01:00;;;;;;;67.18;54.05;;;22.20;46.30;;;;;;4770936;55;20981;-36
2021/04/21 00:06:03;;;;;;;62.78;51.92;;;22.20;46.20;;;;;;4785579;55;21061;-38
2021/04/21 00:11:05;;;;;;;64.22;53.35;;;22.20;46.10;;;;;;4752160;55;21092;-36
2021/04/21 00:16:06;;;;;;;64.30;53.15;;;22.20;46.10;;;;;;4748924;55;21038;-32
2021/04/21 00:21:07;;;;;;;63.38;53.38;;;22.20;46.10;;;;;;4737690;59;21287;-30
2021/04/21 00:26:16;;;;;;;60.38;51.28;;;22.20;46.10;;;;;;4758419;55;21115;-38
2021/04/21 00:31:18;;;;;;;62.75;51.37;;;22.20;46.10;;;;;;4763242;55;21006;-30
2021/04/21 00:36:20;;;;;;;60.72;51.28;;;22.10;46.00;;;;;;4795767;55;21009;-32
2021/04/21 00:42:01;;;;;;;58.67;50.25;;;22.20;46.10;;;;;;4738326;59;21347;-34
2021/04/21 00:47:06;;;;;;;60.67;50.40;;;22.10;46.00;;;;;;4753324;55;21128;-33
2021/04/21 00:52:12;;;;;;;59.95;48.90;;;22.20;46.00;;;;;;4764469;55;21006;-34
2021/04/21 00:57:32;;;;;;;61.97;51.70;;;22.10;46.00;;;;;;4742834;55;20974;-38
2021/04/21 01:02:45;;;;;;;61.03;49.83;;;22.10;46.00;;;;;;4743088;55;21006;-29
2021/04/21 01:07:49;;;;;;;59.97;49.60;;;22.20;46.10;;;;;;4737175;59;21107;-31
2021/04/21 01:12:52;;;;;;;59.35;50.10;;;22.10;46.00;;;;;;4756136;55;21037;-39
2021/04/21 01:17:55;;;;;;;59.35;48.83;;;22.10;45.80;;;;;;4750859;55;21030;-28
2021/04/21 01:23:35;;;;;;;58.63;48.50;;;22.10;45.80;;;;;;4738292;56;20990;-35
2021/04/21 01:28:44;;;;;;;60.12;48.92;;;22.10;45.90;;;;;;4752090;55;21002;-39
2021/04/21 01:33:52;;;;;;;57.83;47.80;;;22.10;45.80;;;;;;4775567;55;21017;-38
2021/04/21 01:38:59;;;;;;;56.22;47.33;;;22.10;45.80;;;;;;4765511;55;21543;-29
2021/04/21 01:44:14;;;;;;;58.47;47.67;;;22.10;45.90;;;;;;4770414;55;21022;-35
2021/04/21 01:50:36;;;;;;;57.03;46.67;;;22.10;45.80;;;;;;4794594;55;21488;-30
2021/04/21 01:55:46;;;;;;;56.28;47.00;;;22.10;45.70;;;;;;4755231;55;21057;-38
2021/04/21 02:03:31;;;;;;;55.85;45.70;;;22.10;45.80;;;;;;4791976;55;21082;-36
2021/04/21 02:09:15;;;;;;;58.95;47.53;;;22.10;45.70;;;;;;4761722;55;21523;-37
2021/04/21 02:14:32;;;;;;;54.15;45.35;;;22.10;45.60;;;;;;4817079;55;20990;-38
2021/04/21 02:20:09;;;;;;;;;;;22.10;45.70;;;;;;4817205;55;21112;-36
2021/04/21 02:25:32;;;;;;;53.75;44.25;;;22.10;45.70;;;;;;4759332;55;20105;-39
2021/04/21 02:30:41;;;;;;;56.13;46.00;;;22.10;45.70;;;;;;4766513;55;21460;-30
2021/04/21 02:36:06;;;;;;;52.53;44.40;;;22.10;45.70;;;;;;4745576;55;21097;-33
2021/04/21 02:41:23;;;;;;;51.75;43.25;;;22.10;45.60;;;;;;4799029;55;21053;-38
2021/04/21 02:47:05;;;;;;;53.47;43.03;;;22.10;45.60;;;;;;4765524;55;21046;-36
2021/04/21 02:55:20;;;;;;;53.00;44.55;;;22.10;45.60;;;;;;4772395;55;20994;-36
2021/04/21 03:00:29;;;;;;;50.10;41.53;;;22.10;45.60;;;;;;4746197;55;21532;-35
2021/04/21 03:05:32;;;;;;;51.08;42.80;;;22.10;45.50;;;;;;4786667;55;21504;-38
2021/04/21 03:10:46;;;;;;;48.25;41.42;;;22.10;45.50;;;;;;4789295;55;21041;-27
2021/04/21 03:15:49;;;;;;;52.28;42.28;;;22.10;45.50;;;;;;4784937;55;21085;-35
2021/04/21 03:21:40;;;;;;;49.13;40.00;;;22.10;45.50;;;;;;4797354;55;21007;-34
2021/04/21 03:26:50;;;;;;;49.20;41.70;;;22.10;45.50;;;;;;4760861;55;21025;-32
2021/04/21 03:31:54;;;;;;;45.83;38.50;;;22.10;45.50;;;;;;4757529;55;21070;-32
2021/04/21 03:36:56;;;;;;;48.13;40.42;;;22.10;45.50;;;;;;4738635;59;21085;-30
2021/04/21 03:41:56;;;;;;;46.85;40.12;;;22.10;45.40;;;;;;4738088;59;20990;-33
2021/04/21 03:46:57;;;;;;;47.53;38.53;;;22.10;45.40;;;;;;4780798;55;21002;-29
2021/04/21 03:52:00;;;;;;;46.63;39.78;;;22.10;45.40;;;;;;4767818;55;21078;-30
2021/04/21 03:57:03;;;;;;;49.00;40.35;;;22.10;45.40;;;;;;4739809;55;21407;-32
2021/04/21 04:02:06;;;;;;;45.67;38.65;;;22.00;45.40;;;;;;4763013;55;21547;-34
2021/04/21 04:07:11;;;;;;;46.83;39.22;;;22.10;45.40;;;;;;4759452;55;21120;-33
2021/04/21 04:12:13;;;;;;;46.22;38.63;;;22.10;45.40;;;;;;4747939;55;21045;-38
2021/04/21 04:17:20;;;;;;;45.47;39.17;;;22.10;45.50;;;;;;4761169;55;21042;-38
2021/04/21 04:22:23;;;;;;;49.00;40.22;;;22.10;45.40;;;;;;4746321;55;21603;-38
2021/04/21 04:27:26;;;;;;;46.03;38.33;;;22.10;45.40;;;;;;4759309;55;21139;-28
2021/04/21 04:32:28;;;;;;;46.28;38.50;;;22.00;45.30;;;;;;4825884;55;20987;-31
2021/04/21 04:37:30;;;;;;;48.15;39.00;;;22.00;45.30;;;;;;4760231;55;21560;-28
2021/04/21 04:42:31;;;;;;;46.70;38.55;;;22.00;45.30;;;;;;4779928;55;21488;-34
2021/04/21 04:47:57;;;;;;;44.85;38.05;;;22.10;45.40;;;;;;4744772;55;21045;-39
2021/04/21 04:53:03;;;;;;;45.90;37.13;;;22.00;45.40;;;;;;4795508;55;21049;-36
2021/04/21 04:58:08;;;;;;;43.13;36.42;;;22.00;45.40;;;;;;4761613;55;20993;-30
2021/04/21 05:03:23;;;;;;;43.47;36.90;;;22.00;45.50;;;;;;4766991;55;21085;-33
2021/04/21 05:09:03;;;;;;;45.15;37.13;;;22.00;45.50;;;;;;4752845;55;21042;-37
2021/04/21 05:14:10;;;;;;;45.12;35.85;;;22.00;45.50;;;;;;4738409;55;21469;-29
2021/04/21 05:22:22;;;;;;;43.72;36.95;;;22.00;45.50;;;;;;4747684;55;21002;-36
2021/04/21 05:34:39;;;;;;;44.90;36.83;;;22.00;45.50;;;;;;4739459;55;21089;-32
2021/04/21 05:40:28;;;;;;;44.22;35.83;;;22.00;45.60;;;;;;4755429;55;21041;-31
2021/04/21 05:48:49;;;;;;;42.30;34.95;;;22.00;45.40;;;;;;4743855;55;20997;-35
2021/04/21 05:54:16;;;;;;;46.03;36.78;;;22.00;45.40;;;;;;4759822;55;21480;-29
2021/04/21 06:00:29;;;;;;;46.30;36.40;;;22.00;45.30;;;;;;4760666;55;21045;-28
2021/04/21 06:05:30;;;;;;;45.38;37.10;;;22.00;45.40;;;;;;4847390;55;21046;-31
2021/04/21 06:10:31;;;;;;;42.38;35.40;;;22.00;45.30;;;;;;4776703;55;21033;-28
2021/04/21 06:15:40;;;;;;;44.53;37.05;;;22.00;45.30;;;;;;4777509;55;21479;-32
2021/04/21 06:20:44;;;;;;;45.67;36.63;;;22.00;45.30;;;;;;4755031;55;21453;-31
2021/04/21 06:25:57;;;;;;;43.85;35.33;;;22.00;45.20;;;;;;4742291;55;21021;-31
2021/04/21 06:32:01;;;;;;;46.22;36.50;;;22.00;45.20;;;;;;4775071;55;21018;-32
2021/04/21 06:37:02;;;;;;;46.00;36.60;;;22.00;45.20;;;;;;4738248;59;21034;-30
2021/04/21 06:42:04;;;;;;;46.10;37.50;;;22.00;45.20;;;;;;4741092;55;21057;-33
2021/04/21 06:47:05;;;;;;;44.42;35.28;;;22.00;45.20;;;;;;4764213;55;21037;-30
2021/04/21 06:52:13;;;;;;;45.30;35.83;;;22.00;45.10;;;;;;4762929;55;21078;-31
2021/04/21 06:57:28;;;;;;;46.92;37.42;;;22.00;45.10;;;;;;4751832;55;21002;-33
2021/04/21 07:02:43;;;;;;;48.78;38.78;;;22.10;45.40;;;;;;4778554;55;21401;-29
2021/04/21 07:07:45;;;;;;;48.80;38.50;;;22.10;45.40;;;;;;4765559;55;21540;-29
2021/04/21 07:12:46;;;;;;;48.20;40.12;;;22.20;45.50;;;;;;4737059;59;21136;-34
2021/04/21 07:17:51;;;;;;;49.33;39.60;;;22.20;45.60;;;;;;4738227;55;21045;-30
2021/04/21 07:22:53;;;;;;;50.00;39.65;;;22.20;45.70;;;;;;4777116;55;20998;-31
2021/04/21 07:27:55;;;;;;;51.00;39.85;;;22.30;46.50;;;;;;4754957;55;21082;-35
2021/04/21 07:32:57;;;;;;;51.30;40.95;;;22.40;46.00;;;;;;4749526;55;20997;-32
2021/04/21 07:37:58;;;;;;;53.72;42.75;;;22.40;46.10;;;;;;4738354;55;20998;-33
2021/04/21 07:43:11;;;;;;;54.97;42.45;;;22.40;46.40;;;;;;4748332;55;21014;-28
2021/04/21 07:50:05;;;;;;;56.88;43.87;;;22.40;46.30;;;;;;4753295;55;21058;-31
2021/04/21 07:55:23;;;;;;;53.25;43.87;;;22.30;46.20;;;;;;4759765;55;21082;-32
2021/04/21 08:00:29;;;;;;;56.58;45.47;;;22.40;46.20;;;;;;4781673;55;21018;-32
2021/04/21 08:05:31;;;;;;;63.40;47.78;;;22.30;46.10;;;;;;4739445;55;21026;-33
2021/04/21 08:10:37;;;;;;;68.35;53.55;;;22.40;46.20;;;;;;4765729;55;21516;-27
2021/04/21 08:15:39;;;;;;;74.35;56.72;;;22.50;46.30;;;;;;4735724;55;20995;-33
2021/04/21 08:20:50;;;;;;;64.65;53.53;;;22.50;46.30;;;;;;4772333;55;22364;-33
2021/04/21 08:25:52;;;;;;;69.70;56.45;;;22.50;47.20;;;;;;4826509;55;21468;-30
2021/04/21 08:30:55;;;;;;;72.28;57.62;;;22.60;46.80;;;;;;4787223;55;21977;-29
2021/04/21 08:35:56;;;;;;;70.32;56.17;;;22.60;47.00;;;;;;4745863;55;21030;-33
2021/04/21 08:40:56;;;;;;;71.18;55.83;;;22.60;47.30;;;;;;4762256;55;21009;-29
2021/04/21 08:45:57;;;;;;;70.07;55.15;;;22.60;47.40;;;;;;4760620;55;20994;-30
2021/04/21 08:51:01;;;;;;;69.85;54.95;;;22.70;47.70;;;;;;4767803;55;21069;-30
2021/04/21 08:56:04;;;;;;;74.93;56.00;;;22.70;47.90;;;;;;4765213;55;21492;-28
2021/04/21 09:01:06;;;;;;;75.43;59.05;;;22.70;47.90;;;;;;4738854;55;21366;-32
2021/04/21 09:06:08;;;;;;;73.25;59.53;;;22.80;48.20;;;;;;4754024;55;21045;-32
2021/04/21 09:11:09;;;;;;;74.05;57.20;;;22.80;48.30;;;;;;4783397;55;21671;-34
2021/04/21 09:16:11;;;;;;;78.90;60.05;;;22.80;48.60;;;;;;4737092;59;21623;-29
2021/04/21 09:21:24;;;;;;;76.00;59.80;;;22.80;48.70;;;;;;4737318;59;21597;-36
2021/04/21 09:26:37;;;;;;;78.80;59.92;;;22.80;48.70;;;;;;4738560;55;21482;-28
2021/04/21 09:31:37;;;;;;;79.07;59.65;;;22.90;48.80;;;;;;4738006;55;21693;-30
2021/04/21 09:36:46;;;;;;;76.18;59.47;;;22.90;48.90;;;;;;4739693;55;21049;-24
2021/04/21 09:41:50;;;;;;;78.43;61.92;;;22.90;49.00;;;;;;4738472;55;21524;-21
2021/04/21 09:46:51;;;;;;;79.15;61.63;;;23.00;49.70;;;;;;4745296;55;21515;-30
2021/04/21 09:51:51;;;;;;;76.45;61.28;;;23.00;49.30;;;;;;4749609;55;21049;-29
2021/04/21 09:57:06;;;;;;;82.18;62.97;;;23.00;49.30;;;;;;4738134;59;20994;-27
2021/04/21 10:02:58;;;;;;;83.37;63.03;;;23.00;49.50;;;;;;4783657;55;21983;-34
2021/04/21 10:08:22;;;;;;;80.25;64.55;;;23.00;49.50;;;;;;4748864;55;21038;-36
2021/04/21 10:13:23;;;;;;;80.85;64.40;;;23.00;49.60;;;;;;4752608;55;21464;-28
2021/04/21 10:18:23;;;;;;;81.68;64.03;;;23.10;49.70;;;;;;4739834;55;21042;-29
2021/04/21 10:23:24;;;;;;;84.72;65.35;;;23.10;49.70;;;;;;4773920;55;20994;-28
2021/04/21 10:28:26;;;;;;;85.20;64.35;;;23.10;49.80;;;;;;4766717;55;21066;-29
2021/04/21 10:33:27;;;;;;;80.93;64.90;;;23.10;49.80;;;;;;4738308;59;21038;-34
2021/04/21 10:38:29;;;;;;;87.45;68.40;;;23.10;49.90;;;;;;4738669;55;21080;-30
2021/04/21 10:43:37;;;;;;;81.50;65.22;;;23.10;50.00;;;;;;4766641;55;21590;-35
2021/04/21 10:48:44;;;;;;;84.22;66.50;;;23.10;50.00;;;;;;4802040;55;21081;-29
2021/04/21 10:53:46;;;;;;;82.75;67.62;;;23.20;50.10;;;;;;4768462;55;21111;-28
2021/04/21 10:58:56;;;;;;;82.18;67.10;;;23.20;50.20;;;;;;4786448;55;21461;-31
2021/04/21 11:03:58;;;;;;;81.30;65.47;;;23.20;50.20;;;;;;4794107;55;21578;-32
2021/04/21 11:08:58;;;;;;;84.53;66.32;;;23.20;50.30;;;;;;4760163;55;21104;-21
2021/04/21 11:13:59;;;;;;;84.18;64.65;;;23.20;50.40;;;;;;4754063;55;21062;-35
2021/04/21 11:25:49;;;;;;;88.20;69.70;;;23.20;50.40;;;;;;4743315;55;21010;-23
2021/04/21 11:30:54;;;;;;;84.57;68.28;;;23.20;50.30;;;;;;4781989;55;21468;-32
2021/04/21 11:35:55;;;;;;;91.25;68.95;;;23.20;50.20;;;;;;4814175;55;21496;-24
2021/04/21 11:41:17;;;;;;;85.53;68.93;;;23.10;50.10;;;;;;4737976;59;21069;-26
2021/04/21 11:46:55;;;;;;;89.37;69.95;;;23.10;50.00;;;;;;4748619;55;21133;-30
2021/04/21 11:51:58;;;;;;;99.32;79.80;;;23.10;50.00;;;;;;4758100;55;21050;-31
2021/04/21 11:56:59;;;;;;;100.18;79.22;;;23.10;49.30;;;;;;4738072;59;21018;-32
2021/04/21 12:01:59;;;;;;;98.72;79.53;;;23.10;49.10;;;;;;4750428;55;21010;-33
2021/04/21 12:07:01;;;;;;;101.78;78.03;;;23.10;49.30;;;;;;4741734;55;21054;-25
2021/04/21 12:12:01;;;;;;;95.90;78.28;;;23.10;49.30;;;;;;4759636;55;21059;-31
2021/04/21 12:17:10;;;;;;;99.13;78.85;;;23.10;49.40;;;;;;4736743;59;21021;-28
2021/04/21 12:22:12;;;;;;;91.65;76.45;;;23.20;49.50;;;;;;4769645;55;21021;-29
2021/04/21 12:27:29;;;;;;;92.62;76.30;;;23.20;49.50;;;;;;4772093;55;21555;-34
2021/04/21 12:32:30;;;;;;;98.28;76.90;;;23.30;49.70;;;;;;4735518;55;21593;-33
2021/04/21 12:37:30;;;;;;;98.70;78.97;;;23.20;49.70;;;;;;4744829;55;20998;-32
2021/04/21 12:42:31;;;;;;;92.90;77.62;;;23.20;49.70;;;;;;4746710;55;21003;-26
2021/04/21 12:47:32;;;;;;;95.30;77.15;;;23.20;49.80;;;;;;4773474;55;21496;-27
2021/04/21 12:52:33;;;;;;;94.78;77.45;;;23.30;49.90;;;;;;4763865;55;21038;-32
2021/04/21 12:57:50;;;;;;;96.45;76.93;;;23.30;50.10;;;;;;4737565;59;21006;-30
2021/04/21 13:02:53;;;;;;;95.93;79.75;;;23.30;50.10;;;;;;4798872;55;21556;-35
2021/04/21 13:07:55;;;;;;;91.28;73.57;;;23.20;50.10;;;;;;4743391;55;21091;-35
2021/04/21 13:13:02;;;;;;;92.82;75.03;;;23.30;50.00;;;;;;4753299;55;21591;-28
2021/04/21 13:18:10;;;;;;;96.07;76.05;;;23.30;50.00;;;;;;4760468;55;21535;-33
2021/04/21 13:23:25;;;;;;;88.70;73.00;;;23.30;50.00;;;;;;4781555;55;21077;-37
2021/04/21 13:28:40;;;;;;;88.37;73.72;;;23.30;50.00;;;;;;4772419;55;20973;-36
2021/04/21 13:33:46;;;;;;;92.07;72.43;;;23.30;50.10;;;;;;4762708;55;21081;-33
2021/04/21 13:38:48;;;;;;;92.90;71.90;;;23.30;50.00;;;;;;4748831;55;20998;-34
2021/04/21 13:43:49;;;;;;;87.50;71.28;;;23.30;50.00;;;;;;4757036;55;21107;-23
2021/04/21 13:48:49;;;;;;;84.40;68.87;;;23.30;50.00;;;;;;4783249;55;20970;-34
2021/04/21 13:53:50;;;;;;;85.47;70.05;;;23.20;50.60;;;;;;4767178;55;21089;-32
2021/04/21 13:58:51;;;;;;;88.90;70.43;;;23.30;50.00;;;;;;4745494;55;21073;-36
2021/04/21 14:03:52;;;;;;;79.12;66.30;;;23.30;50.00;;;;;;4773280;55;21057;-35
2021/04/21 14:08:53;;;;;;;83.37;67.40;;;23.30;50.00;;;;;;4755290;55;21056;-37
2021/04/21 14:13:57;;;;;;;93.47;72.07;;;23.30;50.00;;;;;;4774512;55;21034;-32
2021/04/21 14:18:58;;;;;;;87.30;68.30;;;23.30;50.00;;;;;;4755791;55;21010;-35
2021/04/21 14:23:58;;;;;;;86.45;68.82;;;23.30;49.50;;;;;;4745530;55;21004;-32
2021/04/21 14:28:59;;;;;;;84.68;68.28;;;23.30;50.60;;;;;;4741275;55;21014;-31
2021/04/21 14:34:00;;;;;;;81.90;69.55;;;23.30;50.00;;;;;;4743458;55;21475;-31
2021/04/21 14:39:03;;;;;;;87.57;69.85;;;23.30;50.00;;;;;;4746117;55;21014;-32
2021/04/21 14:44:06;;;;;;;86.30;68.78;;;23.30;50.00;;;;;;4742754;55;21053;-28
2021/04/21 14:49:07;;;;;;;83.65;66.43;;;23.30;50.10;;;;;;4781980;55;21543;-33
2021/04/21 14:54:08;;;;;;;77.75;66.57;;;23.30;50.10;;;;;;4739032;59;21005;-31
2021/04/21 14:59:09;;;;;;;78.72;66.57;;;23.30;50.00;;;;;;4760300;55;21034;-33
2021/04/21 15:04:10;;;;;;;84.60;67.93;;;23.30;50.00;;;;;;4754091;55;21077;-32
2021/04/21 15:09:11;;;;;;;82.40;67.85;;;23.20;49.90;;;;;;4792067;55;21084;-31
2021/04/21 15:14:12;;;;;;;79.90;65.57;;;23.10;49.80;;;;;;4741982;55;21560;-27
2021/04/21 15:19:13;;;;;;;80.20;66.45;;;23.10;49.90;;;;;;4754316;55;21093;-30
2021/04/21 15:24:16;;;;;;;81.53;67.07;;;23.00;49.90;;;;;;4750310;55;20990;-31
2021/04/21 15:29:16;;;;;;;80.10;65.95;;;23.10;49.70;;;;;;4739541;55;21620;-31
2021/04/21 15:34:17;;;;;;;81.18;67.60;;;23.00;49.60;;;;;;4757337;55;21002;-29
2021/04/21 15:39:20;;;;;;;79.18;68.10;;;23.00;49.50;;;;;;4747497;55;21006;-30
2021/04/21 15:44:21;;;;;;;81.80;67.03;;;23.00;49.50;;;;;;4738029;59;21089;-32
2021/04/21 15:49:22;;;;;;;79.90;64.47;;;22.90;49.50;;;;;;4763328;55;21125;-30
2021/04/21 15:54:23;;;;;;;78.60;65.18;;;22.90;49.40;;;;;;4759295;55;21022;-31
2021/04/21 15:59:24;;;;;;;76.68;65.78;;;22.90;49.40;;;;;;4738648;55;21009;-33
2021/04/21 16:04:25;;;;;;;81.22;65.68;;;22.80;49.40;;;;;;4763555;55;21022;-31
2021/04/21 16:09:26;;;;;;;79.43;64.70;;;22.80;49.30;;;;;;4751309;55;21051;-30
2021/04/21 16:14:27;;;;;;;84.25;69.12;;;22.80;49.30;;;;;;4757833;55;21028;-32
2021/04/21 16:19:28;;;;;;;76.20;63.63;;;22.80;49.30;;;;;;4752865;55;21010;-27
2021/04/21 16:24:29;;;;;;;82.93;67.10;;;22.80;49.30;;;;;;4742465;55;21492;-32
2021/04/21 16:29:29;;;;;;;83.70;66.82;;;22.80;49.20;;;;;;4765135;55;21026;-32
2021/04/21 16:34:30;;;;;;;82.68;67.37;;;22.70;49.10;;;;;;4745854;55;21057;-30
2021/04/21 16:39:31;;;;;;;77.80;65.30;;;22.70;49.10;;;;;;4738244;59;21472;-29
2021/04/21 16:44:32;;;;;;;81.57;67.95;;;22.70;49.00;;;;;;4749451;55;21527;-28
2021/04/21 16:49:32;;;;;;;80.60;67.43;;;22.70;49.10;;;;;;4737892;55;21070;-28
2021/04/21 16:54:37;;;;;;;78.65;65.55;;;22.70;49.00;;;;;;4768827;55;21037;-35
2021/04/21 16:59:41;;;;;;;78.05;63.50;;;22.70;49.00;;;;;;4738070;55;21014;-32
2021/04/21 17:04:42;;;;;;;79.12;64.97;;;22.70;48.90;;;;;;4737796;59;21569;-30
2021/04/21 17:09:43;;;;;;;80.10;65.85;;;22.70;48.90;;;;;;4784091;55;21075;-31
2021/04/21 17:14:43;;;;;;;78.78;64.43;;;22.70;48.80;;;;;;4759132;55;21005;-29
2021/04/21 17:19:45;;;;;;;74.50;62.75;;;22.70;48.90;;;;;;4743241;55;21564;-31
2021/04/21 17:24:46;;;;;;;79.70;64.03;;;22.70;48.70;;;;;;4749113;55;21054;-28
2021/04/21 17:29:47;;;;;;;77.65;64.00;;;22.70;48.70;;;;;;4801330;55;21046;-32
2021/04/21 17:34:48;;;;;;;75.32;62.13;;;22.60;48.60;;;;;;4768067;55;21069;-25
2021/04/21 17:39:50;;;;;;;78.68;63.42;;;22.60;48.70;;;;;;4761329;55;21046;-32
2021/04/21 17:44:51;;;;;;;73.15;62.55;;;22.60;48.50;;;;;;4783370;55;21014;-31
2021/04/21 17:49:52;;;;;;;73.00;61.72;;;22.60;48.60;;;;;;4779262;55;21018;-29
2021/04/21 17:54:53;;;;;;;72.70;62.35;;;22.60;48.40;;;;;;4753914;55;21472;-35
2021/04/21 17:59:54;;;;;;;75.28;62.53;;;22.60;48.30;;;;;;4779820;55;21080;-30
2021/04/21 18:04:54;;;;;;;74.37;63.38;;;22.60;48.30;;;;;;4737381;59;21125;-35
2021/04/21 18:09:55;;;;;;;74.55;62.38;;;22.60;48.30;;;;;;4742330;55;21957;-29
2021/04/21 18:14:56;;;;;;;77.62;62.97;;;22.60;48.40;;;;;;4738240;59;21097;-32
2021/04/21 18:19:57;;;;;;;73.18;61.72;;;22.60;48.30;;;;;;4756074;55;21033;-32
2021/04/21 18:24:58;;;;;;;74.62;62.10;;;22.60;48.20;;;;;;4768906;55;21013;-28
2021/04/21 18:29:59;;;;;;;74.15;61.60;;;22.60;48.30;;;;;;4757233;55;21078;-27
2021/04/21 18:35:01;;;;;;;76.75;62.05;;;22.60;48.10;;;;;;4751317;55;20990;-31
2021/04/21 18:40:03;;;;;;;73.72;61.20;;;22.60;48.10;;;;;;4768234;55;21025;-32
2021/04/21 18:45:05;;;;;;;74.60;62.95;;;22.60;48.20;;;;;;4743947;55;21149;-43
2021/04/21 18:50:10;;;;;;;75.07;63.58;;;22.60;48.00;;;;;;4740180;55;21070;-30
2021/04/21 18:55:12;;;;;;;72.57;61.05;;;22.60;48.00;;;;;;4757788;55;20998;-38
2021/04/21 19:00:18;;;;;;;73.37;62.70;;;22.60;48.20;;;;;;4738941;59;21029;-32
2021/04/21 19:05:20;;;;;;;72.30;61.03;;;22.60;48.10;;;;;;4786779;55;21552;-29
2021/04/21 19:10:22;;;;;;;72.40;61.03;;;22.60;48.20;;;;;;4746172;55;21085;-32
2021/04/21 19:15:23;;;;;;;73.47;62.95;;;22.60;48.00;;;;;;4786191;55;21038;-35
2021/04/21 19:20:24;;;;;;;73.15;59.63;;;22.60;47.40;;;;;;4759852;55;21001;-31
2021/04/21 19:25:25;;;;;;;72.03;60.97;;;22.60;48.00;;;;;;4771581;55;20998;-29
2021/04/21 19:30:26;;;;;;;77.40;63.00;;;22.60;48.10;;;;;;4785640;55;21114;-26
2021/04/21 19:35:27;;;;;;;72.85;60.78;;;22.50;47.90;;;;;;4760438;55;21465;-30
2021/04/21 19:40:31;;;;;;;72.03;58.90;;;22.50;47.90;;;;;;4796228;55;21014;-35
2021/04/21 19:45:32;;;;;;;71.15;59.33;;;22.60;48.20;;;;;;4783234;55;21081;-31
2021/04/21 19:50:33;;;;;;;73.12;60.95;;;22.60;48.00;;;;;;4751569;55;21799;-30
2021/04/21 19:55:34;;;;;;;74.78;59.35;;;22.50;47.80;;;;;;4740646;55;21127;-34
2021/04/21 20:00:38;;;;;;;70.28;58.17;;;22.60;48.30;;;;;;4805485;55;20994;-30
2021/04/21 20:05:41;;;;;;;70.97;60.35;;;22.50;48.00;;;;;;4737152;59;21094;-32
2021/04/21 20:10:42;;;;;;;72.53;59.78;;;22.50;47.70;;;;;;4750246;55;21014;-32
2021/04/21 20:15:43;;;;;;;72.45;58.33;;;22.50;47.80;;;;;;4800692;55;21129;-31
2021/04/21 20:20:44;;;;;;;69.90;58.10;;;22.50;47.90;;;;;;4750596;55;21073;-33
2021/04/21 20:25:45;;;;;;;69.10;57.67;;;22.50;47.90;;;;;;4741803;55;21544;-37
2021/04/21 20:30:46;;;;;;;69.80;57.33;;;22.50;47.80;;;;;;4755851;55;21078;-36
2021/04/21 20:35:49;;;;;;;68.20;57.25;;;22.50;47.90;;;;;;4742001;55;21119;-31
2021/04/21 20:40:53;;;;;;;69.60;57.05;;;22.50;47.70;;;;;;4755984;55;21819;-31
2021/04/21 20:45:54;;;;;;;66.37;55.08;;;22.50;47.80;;;;;;4767925;55;21508;-29
2021/04/21 20:50:55;;;;;;;68.85;57.62;;;22.50;47.70;;;;;;4767749;55;21014;-29
2021/04/21 20:55:56;;;;;;;67.10;57.20;;;22.50;47.60;;;;;;4740841;55;21555;-37
2021/04/21 21:00:58;;;;;;;65.97;55.08;;;22.50;47.70;;;;;;4743922;55;21021;-25
2021/04/21 21:05:59;;;;;;;69.62;57.60;;;22.50;47.90;;;;;;4819680;55;21557;-32
2021/04/21 21:11:00;;;;;;;67.80;56.75;;;22.50;47.70;;;;;;4824767;55;21157;-31
2021/04/21 21:16:01;;;;;;;67.47;56.47;;;22.50;47.80;;;;;;4742580;55;21524;-25
2021/04/21 21:21:02;;;;;;;68.12;56.05;;;22.50;48.50;;;;;;4759094;55;21013;-29
2021/04/21 21:26:03;;;;;;;65.50;55.67;;;22.50;47.70;;;;;;4742764;55;21010;-29
2021/04/21 21:31:03;;;;;;;62.47;54.25;;;22.50;47.70;;;;;;4737239;59;21022;-36
2021/04/21 21:36:05;;;;;;;66.85;54.60;;;22.50;47.60;;;;;;4752774;55;21026;-39
2021/04/21 21:41:06;;;;;;;66.65;54.45;;;22.50;47.60;;;;;;4800892;55;21002;-26
2021/04/21 21:46:07;;;;;;;65.07;55.05;;;22.50;47.70;;;;;;4742568;55;20998;-38
2021/04/21 21:51:08;;;;;;;63.25;52.60;;;22.50;47.70;;;;;;4784094;55;21563;-37
2021/04/21 21:56:11;;;;;;;63.28;53.72;;;22.50;47.60;;;;;;4743813;55;21488;-38
2021/04/21 22:01:12;;;;;;;62.78;52.30;;;22.50;47.60;;;;;;4741276;55;21543;-30
2021/04/21 22:06:14;;;;;;;64.10;53.58;;;22.50;47.70;;;;;;4738044;59;21077;-30
2021/04/21 22:11:19;;;;;;;65.40;52.38;;;22.50;47.60;;;;;;4738520;59;21596;-27
2021/04/21 22:16:20;;;;;;;63.53;53.47;;;22.50;47.50;;;;;;4750744;55;21092;-35
2021/04/21 22:21:21;;;;;;;63.35;52.95;;;22.50;47.50;;;;;;4758708;55;21508;-30
2021/04/21 22:26:23;;;;;;;63.25;51.95;;;22.50;47.50;;;;;;4790737;55;21006;-25
2021/04/21 22:31:23;;;;;;;65.68;53.72;;;22.50;47.50;;;;;;4766064;55;21069;-30
2021/04/21 22:36:24;;;;;;;60.25;51.78;;;22.50;47.50;;;;;;4772877;55;21022;-30
2021/04/21 22:41:25;;;;;;;60.38;51.80;;;22.50;47.40;;;;;;4759953;55;21484;-29
2021/04/21 22:46:26;;;;;;;61.28;52.83;;;22.50;47.40;;;;;;4810106;55;21038;-29
2021/04/21 22:51:27;;;;;;;63.75;52.53;;;22.50;47.50;;;;;;4785246;55;21025;-29
2021/04/21 22:56:29;;;;;;;60.10;50.35;;;22.50;47.50;;;;;;4738618;59;21456;-28
2021/04/21 23:01:29;;;;;;;61.67;52.45;;;22.40;47.30;;;;;;4759506;55;21074;-33
2021/04/21 23:06:30;;;;;;;60.15;50.70;;;22.40;47.10;;;;;;4738647;55;21034;-31
2021/04/21 23:11:31;;;;;;;61.40;50.22;;;22.40;47.30;;;;;;4764481;55;21563;-28
2021/04/21 23:16:32;;;;;;;61.35;49.65;;;22.40;47.30;;;;;;4757594;55;21476;-30
2021/04/21 23:21:33;;;;;;;58.17;48.10;;;22.40;47.30;;;;;;4749049;55;20994;-33
2021/04/21 23:26:37;;;;;;;59.47;50.28;;;22.40;47.40;;;;;;4766892;55;20994;-26
2021/04/21 23:31:38;;;;;;;58.58;48.63;;;22.50;47.40;;;;;;4757816;55;21540;-24
2021/04/21 23:36:39;;;;;;;57.92;49.13;;;22.40;47.20;;;;;;4737632;59;21492;-29
2021/04/21 23:41:40;;;;;;;55.83;46.88;;;22.40;47.00;;;;;;4738718;59;21061;-32
2021/04/21 23:46:41;;;;;;;58.58;48.55;;;22.40;47.00;;;;;;4745877;55;21021;-28
2021/04/21 23:51:42;;;;;;;57.65;47.35;;;22.40;47.10;;;;;;4783898;55;21491;-30
2021/04/21 23:56:44;;;;;;;58.58;49.35;;;22.40;47.00;;;;;;4774413;55;21085;-30
